createdAt,value
2022-10-18T00:00:45.742Z,81.53
2022-10-18T00:06:00.978Z,81.15
2022-10-18T00:11:10.569Z,81.20
2022-10-18T00:16:17.759Z,81.30
2022-10-18T00:21:22.604Z,81.40
2022-10-18T00:26:29.345Z,81.61
2022-10-18T00:31:34.139Z,81.92
2022-10-18T00:36:35.930Z,81.55
2022-10-18T00:41:38.455Z,82.29
2022-10-18T00:46:43.462Z,82.74
2022-10-18T00:51:50.023Z,83.02
2022-10-18T00:56:52.210Z,82.42
2022-10-18T01:01:54.258Z,81.79
2022-10-18T01:07:08.012Z,82.35
2022-10-18T01:12:35.694Z,83.30
2022-10-18T01:18:16.440Z,83.93
2022-10-18T01:23:56.088Z,83.82
2022-10-18T01:29:35.317Z,84.15
2022-10-18T01:34:40.107Z,84.17
2022-10-18T01:39:45.852Z,84.21
2022-10-18T01:44:50.533Z,84.31
2022-10-18T01:49:59.481Z,84.38
2022-10-18T01:55:03.238Z,84.50
2022-10-18T02:00:19.292Z,84.06
2022-10-18T02:05:28.652Z,83.52
2022-10-18T02:10:38.896Z,83.70
2022-10-18T02:16:48.233Z,84.10
2022-10-18T02:21:51.782Z,84.42
2022-10-18T02:26:53.645Z,85.00
2022-10-18T02:32:12.282Z,86.24
2022-10-18T02:37:16.208Z,86.45
2022-10-18T02:42:18.291Z,86.57
2022-10-18T02:47:20.066Z,86.59
2022-10-18T02:52:21.760Z,86.36
2022-10-18T02:57:23.480Z,86.28
2022-10-18T03:02:26.108Z,86.23
2022-10-18T03:07:27.852Z,86.32
2022-10-18T03:12:29.865Z,86.57
2022-10-18T03:17:31.847Z,86.75
2022-10-18T03:22:34.342Z,86.90
2022-10-18T03:27:37.134Z,87.06
2022-10-18T03:32:39.903Z,87.14
2022-10-18T03:37:41.769Z,87.16
2022-10-18T03:42:43.692Z,87.22
2022-10-18T03:47:45.570Z,87.14
2022-10-18T03:52:47.484Z,87.09
2022-10-18T03:57:50.305Z,87.07
2022-10-18T04:02:55.017Z,86.85
2022-10-18T04:07:58.279Z,86.85
2022-10-18T04:13:00.065Z,86.67
2022-10-18T04:18:01.971Z,86.58
2022-10-18T04:23:03.777Z,86.17
2022-10-18T04:28:05.558Z,86.15
2022-10-18T04:33:07.291Z,86.09
2022-10-18T04:38:09.331Z,86.01
2022-10-18T04:43:11.454Z,86.12
2022-10-18T04:48:13.211Z,86.32
2022-10-18T04:53:21.083Z,86.42
2022-10-18T04:58:22.960Z,86.62
2022-10-18T05:03:24.739Z,86.63
2022-10-18T05:08:26.729Z,86.66
2022-10-18T05:13:29.499Z,86.54
2022-10-18T05:18:43.794Z,86.58
2022-10-18T05:23:45.501Z,86.54
2022-10-18T05:28:47.516Z,86.42
2022-10-18T05:33:49.339Z,86.40
2022-10-18T05:38:52.766Z,86.49
2022-10-18T05:43:54.631Z,86.49
2022-10-18T05:48:56.293Z,86.53
2022-10-18T05:53:58.838Z,86.26
2022-10-18T05:59:00.869Z,85.54
2022-10-18T06:04:02.550Z,85.06
2022-10-18T06:09:04.969Z,84.46
2022-10-18T06:14:08.325Z,82.90
2022-10-18T06:19:10.171Z,82.20
2022-10-18T06:24:11.916Z,81.90
2022-10-18T06:29:14.187Z,81.70
2022-10-18T06:34:16.186Z,81.37
2022-10-18T06:39:37.685Z,80.66
2022-10-18T06:44:53.080Z,79.93
2022-10-18T06:49:55.090Z,79.42
2022-10-18T06:54:58.040Z,78.97
2022-10-18T06:59:59.872Z,78.50
2022-10-18T07:05:01.574Z,77.94
2022-10-18T07:10:04.741Z,77.19
2022-10-18T07:15:11.031Z,76.45
2022-10-18T07:20:12.821Z,75.40
2022-10-18T07:25:14.696Z,74.10
2022-10-18T07:30:16.592Z,72.82
2022-10-18T07:35:18.583Z,71.50
2022-10-18T07:40:20.286Z,69.93
2022-10-18T07:45:22.216Z,67.86
2022-10-18T07:50:24.392Z,67.14
2022-10-18T07:55:26.325Z,64.80
2022-10-18T08:00:28.120Z,63.48
2022-10-18T08:05:30.266Z,62.40
2022-10-18T08:10:34.174Z,61.10
2022-10-18T08:15:36.070Z,60.00
2022-10-18T08:20:43.123Z,57.80
2022-10-18T08:25:44.904Z,57.80
2022-10-18T08:30:46.635Z,57.30
2022-10-18T08:35:59.750Z,55.54
2022-10-18T08:41:26.235Z,55.09
2022-10-18T08:46:28.720Z,53.37
2022-10-18T08:51:38.655Z,52.01
2022-10-18T08:56:45.460Z,52.15
2022-10-18T09:01:52.221Z,51.56
2022-10-18T09:07:16.698Z,50.83
2022-10-18T09:12:30.888Z,50.12
2022-10-18T09:17:51.734Z,48.59
2022-10-18T09:22:55.632Z,48.39
2022-10-18T09:28:14.993Z,47.48
2022-10-18T09:33:30.720Z,46.20
2022-10-18T09:38:41.499Z,46.56
2022-10-18T09:44:06.745Z,46.43
2022-10-18T09:49:17.028Z,45.42
2022-10-18T09:54:28.071Z,44.76
2022-10-18T09:59:47.963Z,44.50
2022-10-18T10:04:56.444Z,43.85
2022-10-18T10:10:06.450Z,43.66
2022-10-18T10:15:23.709Z,42.95
2022-10-18T10:20:50.034Z,43.67
2022-10-18T10:26:01.371Z,43.52
2022-10-18T10:31:29.915Z,42.76
2022-10-18T10:36:33.609Z,42.94
2022-10-18T10:41:35.723Z,43.12
2022-10-18T10:46:37.644Z,42.72
2022-10-18T10:51:40.344Z,43.56
2022-10-18T10:57:11.535Z,43.43
2022-10-18T11:02:19.106Z,43.62
2022-10-18T11:07:41.127Z,42.87
2022-10-18T11:12:49.355Z,42.92
2022-10-18T11:18:14.860Z,42.10
2022-10-18T11:23:18.333Z,42.68
2022-10-18T11:28:52.184Z,42.36
2022-10-18T11:34:09.352Z,41.94
2022-10-18T11:39:30.958Z,42.65
2022-10-18T11:44:46.309Z,43.16
2022-10-18T11:50:19.448Z,43.01
2022-10-18T11:55:39.849Z,42.80
2022-10-18T12:00:53.875Z,43.13
2022-10-18T12:05:58.290Z,43.45
2022-10-18T12:11:15.871Z,43.47
2022-10-18T12:16:38.836Z,43.38
2022-10-18T12:21:43.991Z,43.48
2022-10-18T12:26:48.677Z,43.74
2022-10-18T12:31:55.638Z,43.46
2022-10-18T12:37:35.028Z,43.14
2022-10-18T12:42:47.009Z,43.40
2022-10-18T12:47:48.789Z,43.71
2022-10-18T12:53:07.759Z,44.24
2022-10-18T12:58:15.674Z,44.08
2022-10-18T13:03:18.027Z,44.21
2022-10-18T13:08:44.705Z,44.13
2022-10-18T13:14:08.888Z,43.80
2022-10-18T13:19:40.428Z,44.18
2022-10-18T13:25:20.707Z,44.27
2022-10-18T13:30:47.336Z,44.77
2022-10-18T13:35:59.063Z,44.84
2022-10-18T13:41:28.329Z,45.07
2022-10-18T13:46:34.780Z,44.30
2022-10-18T13:51:50.169Z,44.38
2022-10-18T13:56:59.838Z,44.04
2022-10-18T14:02:50.557Z,44.07
2022-10-18T14:08:05.776Z,43.85
2022-10-18T14:13:21.163Z,44.03
2022-10-18T14:18:31.877Z,44.24
2022-10-18T14:23:37.822Z,44.68
2022-10-18T14:28:58.535Z,45.10
2022-10-18T14:34:02.772Z,45.40
2022-10-18T14:39:07.393Z,45.86
2022-10-18T14:44:29.694Z,46.22
2022-10-18T14:49:43.886Z,46.65
2022-10-18T14:54:46.636Z,47.08
2022-10-18T14:59:53.926Z,47.45
2022-10-18T15:05:17.552Z,48.04
2022-10-18T15:10:29.154Z,48.70
2022-10-18T15:15:33.665Z,49.66
2022-10-18T15:20:42.413Z,50.54
2022-10-18T15:25:44.696Z,51.19
2022-10-18T15:30:46.741Z,51.84
2022-10-18T15:35:49.143Z,52.40
2022-10-18T15:40:51.518Z,52.97
2022-10-18T15:46:03.247Z,53.58
2022-10-18T15:51:49.954Z,54.42
2022-10-18T15:56:51.921Z,55.21
2022-10-18T16:01:55.057Z,55.71
2022-10-18T16:06:58.002Z,56.02
2022-10-18T16:11:59.989Z,56.43
2022-10-18T16:17:05.006Z,57.02
2022-10-18T16:22:07.138Z,57.48
2022-10-18T16:27:10.717Z,57.90
2022-10-18T16:32:12.694Z,58.42
2022-10-18T16:37:14.530Z,59.01
2022-10-18T16:42:16.373Z,60.95
2022-10-18T16:47:19.145Z,61.80
2022-10-18T16:52:21.141Z,62.52
2022-10-18T16:57:23.154Z,62.34
2022-10-18T17:02:25.076Z,62.01
2022-10-18T17:07:26.901Z,62.09
2022-10-18T17:12:28.839Z,62.21
2022-10-18T17:17:31.469Z,62.41
2022-10-18T17:22:34.234Z,62.51
2022-10-18T17:27:36.215Z,62.82
2022-10-18T17:32:38.272Z,63.29
2022-10-18T17:37:44.070Z,63.96
2022-10-18T17:42:48.053Z,64.80
2022-10-18T17:47:50.074Z,65.54
2022-10-18T17:52:52.166Z,66.49
2022-10-18T17:57:54.130Z,66.99
2022-10-18T18:03:00.586Z,67.56
2022-10-18T18:08:04.138Z,67.81
2022-10-18T18:13:06.521Z,67.93
2022-10-18T18:18:08.397Z,67.77
2022-10-18T18:23:10.384Z,67.97
2022-10-18T18:28:12.268Z,68.71
2022-10-18T18:33:14.267Z,70.20
2022-10-18T18:38:16.060Z,72.30
2022-10-18T18:43:26.105Z,73.40
2022-10-18T18:48:31.222Z,75.41
2022-10-18T18:53:33.081Z,77.19
2022-10-18T18:58:36.986Z,78.24
2022-10-18T19:03:40.550Z,78.62
2022-10-18T19:08:46.338Z,79.46
2022-10-18T19:13:49.740Z,80.19
2022-10-18T19:19:12.516Z,80.67
2022-10-18T19:24:15.334Z,81.28
2022-10-18T19:29:35.715Z,81.38
2022-10-18T19:34:38.370Z,81.25
2022-10-18T19:39:41.067Z,81.21
2022-10-18T19:44:42.891Z,82.33
2022-10-18T19:49:44.814Z,83.26
2022-10-18T19:54:49.162Z,84.16
2022-10-18T19:59:51.281Z,84.78
2022-10-18T20:04:53.256Z,85.36
2022-10-18T20:09:57.548Z,85.73
2022-10-18T20:14:59.625Z,86.14
2022-10-18T20:20:01.397Z,86.49
2022-10-18T20:25:06.477Z,86.90
2022-10-18T20:30:11.380Z,87.17
2022-10-18T20:35:16.096Z,87.39
2022-10-18T20:40:18.086Z,87.51
2022-10-18T20:45:20.522Z,87.66
2022-10-18T20:50:22.473Z,87.95
2022-10-18T20:55:45.719Z,88.24
2022-10-18T21:00:47.867Z,88.42
2022-10-18T21:05:49.653Z,88.45
2022-10-18T21:11:01.107Z,88.38
2022-10-18T21:16:05.522Z,88.28
2022-10-18T21:21:23.029Z,88.21
2022-10-18T21:26:27.377Z,88.11
2022-10-18T21:31:52.727Z,87.94
2022-10-18T21:37:01.210Z,87.79
2022-10-18T21:42:03.389Z,87.53
2022-10-18T21:47:05.383Z,87.34
2022-10-18T21:52:07.298Z,86.90
2022-10-18T21:57:09.254Z,86.82
2022-10-18T22:02:11.010Z,87.01
2022-10-18T22:07:12.800Z,87.17
2022-10-18T22:12:14.563Z,87.24
2022-10-18T22:17:16.687Z,87.46
2022-10-18T22:22:18.489Z,87.81
2022-10-18T22:27:20.440Z,88.13
2022-10-18T22:32:22.374Z,88.13
2022-10-18T22:37:24.158Z,88.12
2022-10-18T22:42:26.292Z,88.17
2022-10-18T22:47:28.156Z,88.26
2022-10-18T22:52:30.112Z,88.38
2022-10-18T22:57:32.118Z,88.34
2022-10-18T23:02:53.723Z,88.38
2022-10-18T23:07:58.138Z,88.71
2022-10-18T23:12:59.998Z,89.05
2022-10-18T23:18:02.227Z,89.27
2022-10-18T23:23:04.241Z,89.34
2022-10-18T23:28:06.534Z,89.35
2022-10-18T23:33:08.376Z,89.29
2022-10-18T23:38:10.706Z,89.22
2022-10-18T23:43:12.705Z,89.12
2022-10-18T23:48:19.928Z,88.97
2022-10-18T23:53:22.828Z,88.79
2022-10-18T23:58:26.152Z,88.79
